Time;durP1;ratioP1;P1;durP2;ratioP2;P2;SDS_P1;SDS_P2;PMS_P1;PMS_P2;Temp;Humidity;BMP_temperature;BMP_pressure;BME280_temperature;BME280_humidity;BME280_pressure;Samples;Min_cycle;Max_cycle;Signal;HPM_P1;HPM_P2
2022/01/30 00:00:23;;;;;;;5.72;2.83;;;;;;;;;;4951664;28;20029;-69
2022/01/30 00:02:48;;;;;;;6.18;3.20;;;;;;;;;;4951801;28;20448;-69
2022/01/30 00:05:14;;;;;;;9.15;3.95;;;;;;;;;;4969532;28;20417;-69
2022/01/30 00:07:39;;;;;;;6.95;3.13;;;;;;;;;;4969455;28;20321;-69
2022/01/30 00:10:08;;;;;;;8.75;3.33;;;;;;;;;;4951784;28;20436;-69
2022/01/30 00:12:44;;;;;;;6.50;2.95;;;;;;;;;;4930569;28;20324;-69
2022/01/30 00:15:10;;;;;;;5.65;2.90;;;;;;;;;;4930437;28;20030;-69
2022/01/30 00:17:42;;;;;;;7.22;3.17;;;;;;;;;;4931275;28;20392;-69
2022/01/30 00:20:14;;;;;;;12.45;3.42;;;;;;;;;;4917377;28;20425;-69
2022/01/30 00:22:47;;;;;;;10.93;3.33;;;;;;;;;;4928309;28;20397;-69
2022/01/30 00:25:16;;;;;;;7.32;3.28;;;;;;;;;;4929808;28;20343;-68
2022/01/30 00:27:54;;;;;;;9.80;3.28;;;;;;;;;;4930899;28;20409;-69
2022/01/30 00:30:19;;;;;;;6.07;2.70;;;;;;;;;;4914834;28;20412;-69
2022/01/30 00:32:45;;;;;;;6.65;3.00;;;;;;;;;;4913293;28;20437;-69
2022/01/30 00:35:11;;;;;;;10.60;3.35;;;;;;;;;;4930319;28;20452;-69
2022/01/30 00:37:40;;;;;;;6.22;2.70;;;;;;;;;;4912350;28;20113;-69
2022/01/30 00:40:06;;;;;;;;;;;;;;;;;;4914219;28;20445;-68
2022/01/30 00:42:31;;;;;;;5.88;3.08;;;;;;;;;;4913510;28;20319;-69
2022/01/30 00:44:57;;;;;;;6.90;2.53;;;;;;;;;;4912210;28;20129;-69
2022/01/30 00:47:22;;;;;;;4.85;2.90;;;;;;;;;;4929815;28;20333;-69
2022/01/30 00:49:47;;;;;;;6.88;3.03;;;;;;;;;;4929942;28;20035;-69
2022/01/30 00:52:16;;;;;;;7.15;3.20;;;;;;;;;;4930198;28;20453;-69
2022/01/30 00:54:42;;;;;;;4.28;2.45;;;;;;;;;;4933980;28;20423;-68
2022/01/30 00:57:07;;;;;;;7.00;2.70;;;;;;;;;;4934267;28;20437;-69
2022/01/30 00:59:32;;;;;;;6.28;3.28;;;;;;;;;;4933698;28;20326;-69
2022/01/30 01:01:58;;;;;;;7.97;3.08;;;;;;;;;;4927958;28;20321;-69
2022/01/30 01:04:23;;;;;;;7.60;2.78;;;;;;;;;;4915188;28;20027;-69
2022/01/30 01:06:50;;;;;;;5.65;2.97;;;;;;;;;;4914776;28;20515;-69
2022/01/30 01:09:17;;;;;;;8.50;2.92;;;;;;;;;;4915872;28;20405;-69
2022/01/30 01:12:25;;;;;;;6.82;3.10;;;;;;;;;;4947575;28;20487;-69
2022/01/30 01:25:36;;;;;;;7.50;3.20;;;;;;;;;;4952526;28;20060;-68
2022/01/30 01:28:02;;;;;;;6.63;2.67;;;;;;;;;;4953920;28;20029;-69
2022/01/30 01:30:27;;;;;;;7.30;2.63;;;;;;;;;;4952140;28;20353;-69
2022/01/30 01:32:52;;;;;;;10.45;3.33;;;;;;;;;;4952447;28;20485;-69
2022/01/30 01:35:18;;;;;;;8.68;2.38;;;;;;;;;;4952300;28;20426;-69
2022/01/30 01:37:43;;;;;;;6.00;3.08;;;;;;;;;;4951985;28;20320;-69
2022/01/30 01:40:09;;;;;;;4.57;2.47;;;;;;;;;;4953786;28;20052;-69
2022/01/30 01:42:36;;;;;;;6.70;2.53;;;;;;;;;;4952644;28;20495;-69
2022/01/30 01:45:02;;;;;;;4.55;2.58;;;;;;;;;;4952603;28;20108;-69
2022/01/30 01:47:31;;;;;;;6.32;2.60;;;;;;;;;;4952146;28;20478;-69
2022/01/30 01:49:56;;;;;;;4.53;2.28;;;;;;;;;;4952240;28;20494;-69
2022/01/30 01:52:24;;;;;;;5.55;2.63;;;;;;;;;;4935031;28;20056;-69
2022/01/30 01:54:56;;;;;;;5.60;3.05;;;;;;;;;;4951638;28;20026;-69
2022/01/30 01:57:23;;;;;;;12.13;3.05;;;;;;;;;;4951528;28;20061;-69
2022/01/30 01:59:48;;;;;;;4.70;2.42;;;;;;;;;;4952201;28;20361;-69
2022/01/30 02:02:14;;;;;;;4.43;2.42;;;;;;;;;;4934213;28;20084;-70
2022/01/30 02:04:41;;;;;;;5.55;2.53;;;;;;;;;;4951615;28;20298;-69
2022/01/30 02:09:47;;;;;;;4.18;2.80;;;;;;;;;;4950751;28;20519;-69
2022/01/30 02:12:33;;;;;;;5.18;2.20;;;;;;;;;;4951827;28;20368;-69
2022/01/30 02:15:16;;;;;;;5.85;2.70;;;;;;;;;;4936712;28;20352;-69
2022/01/30 02:26:00;;;;;;;4.60;1.52;;;;;;;;;;4953087;28;20466;-69
2022/01/30 02:28:28;;;;;;;6.45;2.28;;;;;;;;;;4950913;28;20356;-69
2022/01/30 02:31:10;;;;;;;4.13;2.13;;;;;;;;;;4951315;28;20038;-69
2022/01/30 02:33:36;;;;;;;5.50;1.77;;;;;;;;;;4952464;28;20488;-70
2022/01/30 02:36:02;;;;;;;6.85;2.30;;;;;;;;;;4933815;28;20407;-69
2022/01/30 02:38:27;;;;;;;5.28;2.10;;;;;;;;;;4951463;28;20033;-69
2022/01/30 02:40:56;;;;;;;8.20;2.45;;;;;;;;;;4933394;28;20030;-69
2022/01/30 02:43:27;;;;;;;3.17;1.65;;;;;;;;;;4951580;28;20404;-69
2022/01/30 02:46:24;;;;;;;3.92;1.90;;;;;;;;;;4934152;28;20507;-70
2022/01/30 02:48:56;;;;;;;5.72;2.08;;;;;;;;;;4949435;28;20059;-70
2022/01/30 02:51:23;;;;;;;3.08;1.80;;;;;;;;;;4951175;28;20368;-69
2022/01/30 02:54:02;;;;;;;3.40;1.70;;;;;;;;;;4933460;28;20441;-69
2022/01/30 02:56:28;;;;;;;2.45;1.50;;;;;;;;;;4950737;28;20387;-69
2022/01/30 02:58:53;;;;;;;2.85;1.45;;;;;;;;;;4950697;28;20368;-71
2022/01/30 03:01:18;;;;;;;4.90;1.90;;;;;;;;;;4952338;28;20403;-69
2022/01/30 03:03:44;;;;;;;4.22;1.75;;;;;;;;;;4950472;28;20512;-70
2022/01/30 03:06:09;;;;;;;3.28;1.30;;;;;;;;;;4950786;28;20056;-69
2022/01/30 03:08:34;;;;;;;5.32;1.45;;;;;;;;;;4933396;28;20436;-69
2022/01/30 03:11:00;;;;;;;3.65;1.48;;;;;;;;;;4950107;28;20370;-69
2022/01/30 03:13:25;;;;;;;1.42;1.02;;;;;;;;;;4951053;28;20456;-69
2022/01/30 03:15:50;;;;;;;4.85;1.33;;;;;;;;;;4950018;28;20440;-69
2022/01/30 03:18:16;;;;;;;4.68;2.08;;;;;;;;;;4950469;28;20394;-68
2022/01/30 03:20:42;;;;;;;6.28;1.38;;;;;;;;;;4932711;28;20429;-68
2022/01/30 03:23:07;;;;;;;4.13;1.83;;;;;;;;;;4932915;28;20104;-69
2022/01/30 03:25:33;;;;;;;4.00;1.73;;;;;;;;;;4948844;28;20052;-68
2022/01/30 03:28:01;;;;;;;3.03;1.45;;;;;;;;;;4950141;28;20317;-68
2022/01/30 03:30:29;;;;;;;3.83;1.55;;;;;;;;;;4950357;28;20342;-69
2022/01/30 03:32:55;;;;;;;8.10;2.22;;;;;;;;;;4933208;28;20444;-68
2022/01/30 03:35:20;;;;;;;8.35;1.98;;;;;;;;;;4950525;28;20502;-69
2022/01/30 03:37:46;;;;;;;2.70;1.33;;;;;;;;;;4950302;28;20037;-68
2022/01/30 03:40:12;;;;;;;8.35;1.40;;;;;;;;;;4950011;28;20421;-69
2022/01/30 03:42:38;;;;;;;2.22;1.38;;;;;;;;;;4932569;28;20518;-69
2022/01/30 03:45:04;;;;;;;2.40;1.13;;;;;;;;;;4916209;28;20344;-68
2022/01/30 03:47:29;;;;;;;4.13;1.10;;;;;;;;;;4948259;28;20357;-69
2022/01/30 03:49:54;;;;;;;2.15;1.20;;;;;;;;;;4950238;28;20437;-68
2022/01/30 03:52:19;;;;;;;1.95;1.42;;;;;;;;;;4932235;28;20491;-68
2022/01/30 03:54:45;;;;;;;2.17;1.15;;;;;;;;;;4932109;28;20433;-68
2022/01/30 03:57:10;;;;;;;2.67;1.23;;;;;;;;;;4932488;28;20340;-69
2022/01/30 03:59:36;;;;;;;2.58;1.15;;;;;;;;;;4949441;28;20439;-69
2022/01/30 04:02:02;;;;;;;5.03;1.10;;;;;;;;;;4949963;28;20396;-68
2022/01/30 04:04:27;;;;;;;5.60;1.27;;;;;;;;;;4932351;28;20052;-68
2022/01/30 04:06:56;;;;;;;5.93;1.65;;;;;;;;;;4949418;28;20530;-69
2022/01/30 04:09:21;;;;;;;1.67;1.00;;;;;;;;;;4950795;28;20026;-68
2022/01/30 04:11:47;;;;;;;4.28;1.48;;;;;;;;;;4945759;28;20514;-68
2022/01/30 04:14:12;;;;;;;2.90;1.20;;;;;;;;;;4949783;28;20341;-68
2022/01/30 04:16:38;;;;;;;3.72;1.17;;;;;;;;;;4915806;28;20425;-69
2022/01/30 04:19:04;;;;;;;3.13;1.00;;;;;;;;;;4932677;28;20476;-68
2022/01/30 04:21:30;;;;;;;1.75;1.00;;;;;;;;;;4947763;28;20434;-69
2022/01/30 04:23:55;;;;;;;1.70;0.90;;;;;;;;;;4932135;28;20321;-70
2022/01/30 04:26:20;;;;;;;3.17;1.25;;;;;;;;;;4916299;28;20462;-69
2022/01/30 04:28:45;;;;;;;1.80;0.90;;;;;;;;;;4935178;28;20329;-69
2022/01/30 04:31:13;;;;;;;6.00;2.05;;;;;;;;;;4953844;28;20399;-69
2022/01/30 04:33:38;;;;;;;4.22;1.08;;;;;;;;;;4953177;28;20333;-69
2022/01/30 04:36:08;;;;;;;2.92;1.27;;;;;;;;;;4953330;28;20139;-69
2022/01/30 04:38:52;;;;;;;4.28;1.00;;;;;;;;;;4953315;28;20436;-69
2022/01/30 05:00:23;;;;;;;2.80;0.93;;;;;;;;;;4952994;28;20353;-69
2022/01/30 05:03:00;;;;;;;1.95;0.77;;;;;;;;;;4954475;28;20409;-69
2022/01/30 05:05:46;;;;;;;4.25;1.42;;;;;;;;;;4937045;28;20370;-70
2022/01/30 05:08:12;;;;;;;1.50;0.95;;;;;;;;;;4953239;28;20353;-69
2022/01/30 05:10:37;;;;;;;3.17;0.90;;;;;;;;;;4952149;28;20045;-69
2022/01/30 05:13:06;;;;;;;1.23;1.05;;;;;;;;;;4953002;28;20112;-69
2022/01/30 05:15:32;;;;;;;4.43;1.75;;;;;;;;;;4935393;28;20358;-69
2022/01/30 05:17:57;;;;;;;1.52;0.80;;;;;;;;;;4935140;28;20411;-69
2022/01/30 05:20:23;;;;;;;2.28;1.10;;;;;;;;;;4954209;28;20436;-69
2022/01/30 05:22:48;;;;;;;2.88;1.38;;;;;;;;;;4952309;28;20345;-69
2022/01/30 05:25:14;;;;;;;3.05;0.90;;;;;;;;;;4934888;28;20150;-70
2022/01/30 05:27:40;;;;;;;1.60;0.93;;;;;;;;;;4952834;28;20353;-69
2022/01/30 05:30:06;;;;;;;1.98;0.80;;;;;;;;;;4953558;28;20433;-69
2022/01/30 05:32:32;;;;;;;4.65;0.93;;;;;;;;;;4952302;28;20417;-70
2022/01/30 05:34:57;;;;;;;3.03;1.08;;;;;;;;;;4918679;28;20439;-69
2022/01/30 05:37:23;;;;;;;3.80;1.30;;;;;;;;;;4952101;28;20392;-69
2022/01/30 05:39:48;;;;;;;1.83;0.90;;;;;;;;;;4934446;28;20112;-70
2022/01/30 05:42:14;;;;;;;1.65;0.95;;;;;;;;;;4952260;28;20026;-69
2022/01/30 05:47:37;;;;;;;2.10;0.80;;;;;;;;;;4893568;28;20061;-69
2022/01/30 05:50:03;;;;;;;3.30;1.70;;;;;;;;;;4935354;28;20117;-69
2022/01/30 05:52:28;;;;;;;2.67;0.90;;;;;;;;;;4918865;28;20513;-68
2022/01/30 05:54:53;;;;;;;3.45;1.00;;;;;;;;;;4951765;28;20073;-69
2022/01/30 05:57:19;;;;;;;3.05;0.85;;;;;;;;;;4934494;28;20401;-69
2022/01/30 05:59:44;;;;;;;2.25;1.05;;;;;;;;;;4952075;28;20408;-69
2022/01/30 06:02:11;;;;;;;3.50;0.95;;;;;;;;;;4934255;28;20056;-68
2022/01/30 06:04:36;;;;;;;2.67;1.10;;;;;;;;;;4952394;28;20042;-69
2022/01/30 06:07:02;;;;;;;1.05;0.77;;;;;;;;;;4934581;28;20486;-68
2022/01/30 06:09:27;;;;;;;2.80;1.35;;;;;;;;;;4951436;28;20423;-69
2022/01/30 06:11:53;;;;;;;4.22;1.88;;;;;;;;;;4930318;28;20528;-69
2022/01/30 06:14:22;;;;;;;2.17;1.05;;;;;;;;;;4931384;28;20352;-68
2022/01/30 06:16:49;;;;;;;;;;;;;;;;;;4933114;28;20440;-68
2022/01/30 06:19:15;;;;;;;3.90;0.80;;;;;;;;;;4930697;28;20078;-68
2022/01/30 06:21:40;;;;;;;1.75;1.13;;;;;;;;;;4931976;28;20030;-68
2022/01/30 06:24:05;;;;;;;3.40;1.27;;;;;;;;;;4930689;28;20451;-69
2022/01/30 06:26:31;;;;;;;3.65;1.20;;;;;;;;;;4930969;28;20382;-69
2022/01/30 06:28:56;;;;;;;2.80;0.90;;;;;;;;;;4932913;28;20539;-69
2022/01/30 06:31:22;;;;;;;2.67;0.90;;;;;;;;;;4931814;28;20484;-68
2022/01/30 06:33:47;;;;;;;3.42;0.70;;;;;;;;;;4933123;28;20030;-68
2022/01/30 06:36:13;;;;;;;3.83;1.13;;;;;;;;;;4931633;28;20408;-68
2022/01/30 06:38:38;;;;;;;1.38;0.73;;;;;;;;;;4932880;28;20413;-69
2022/01/30 06:41:03;;;;;;;4.90;1.50;;;;;;;;;;4945990;28;20457;-68
2022/01/30 06:43:29;;;;;;;3.10;1.42;;;;;;;;;;4931535;28;20444;-68
2022/01/30 06:45:55;;;;;;;3.50;0.95;;;;;;;;;;4931644;28;20031;-68
2022/01/30 06:48:21;;;;;;;2.97;0.88;;;;;;;;;;4933241;28;20322;-68
2022/01/30 06:50:46;;;;;;;2.63;0.68;;;;;;;;;;4929411;28;20053;-68
2022/01/30 06:53:12;;;;;;;4.13;0.90;;;;;;;;;;4931779;28;20441;-69
2022/01/30 06:55:42;;;;;;;1.80;0.80;;;;;;;;;;4946023;28;20493;-68
2022/01/30 06:58:08;;;;;;;3.38;0.90;;;;;;;;;;4931439;28;20031;-68
2022/01/30 07:00:33;;;;;;;1.27;0.60;;;;;;;;;;4945621;28;20386;-68
2022/01/30 07:03:00;;;;;;;5.90;1.33;;;;;;;;;;4932239;28;20389;-68
2022/01/30 07:05:25;;;;;;;8.45;0.90;;;;;;;;;;4929863;28;20434;-68
2022/01/30 07:07:51;;;;;;;0.68;0.68;;;;;;;;;;4930783;28;20433;-69
2022/01/30 07:10:16;;;;;;;0.75;0.70;;;;;;;;;;4935555;28;20042;-69
2022/01/30 07:12:42;;;;;;;5.00;1.10;;;;;;;;;;4932816;28;20375;-69
2022/01/30 07:15:07;;;;;;;1.88;0.80;;;;;;;;;;4948837;28;20372;-68
2022/01/30 07:17:33;;;;;;;3.53;0.70;;;;;;;;;;4950737;28;20100;-69
2022/01/30 07:19:58;;;;;;;3.90;1.20;;;;;;;;;;4950395;28;20139;-68
2022/01/30 07:22:24;;;;;;;2.55;0.82;;;;;;;;;;4950493;28;20503;-68
2022/01/30 07:24:49;;;;;;;3.20;0.75;;;;;;;;;;4950744;28;20459;-68
2022/01/30 07:27:14;;;;;;;2.65;1.20;;;;;;;;;;4950211;28;20379;-68
2022/01/30 07:29:39;;;;;;;5.28;1.00;;;;;;;;;;4950099;28;20524;-69
2022/01/30 07:32:05;;;;;;;1.08;0.57;;;;;;;;;;4950292;28;20428;-68
2022/01/30 07:34:30;;;;;;;5.00;0.95;;;;;;;;;;4950085;28;20421;-69
2022/01/30 07:36:58;;;;;;;2.05;1.10;;;;;;;;;;4949951;28;20332;-71
2022/01/30 07:39:27;;;;;;;3.88;0.93;;;;;;;;;;4933463;28;20448;-69
2022/01/30 07:41:52;;;;;;;1.58;0.70;;;;;;;;;;4951186;28;20321;-69
2022/01/30 07:44:18;;;;;;;2.13;0.55;;;;;;;;;;4952469;28;20309;-68
2022/01/30 07:46:43;;;;;;;2.22;1.05;;;;;;;;;;4949890;28;20329;-68
2022/01/30 07:49:09;;;;;;;2.15;0.90;;;;;;;;;;4951560;28;20456;-70
2022/01/30 07:51:34;;;;;;;1.45;0.90;;;;;;;;;;4950178;28;20360;-68
2022/01/30 07:54:00;;;;;;;0.47;0.47;;;;;;;;;;4950746;28;20416;-69
2022/01/30 07:56:25;;;;;;;4.95;1.75;;;;;;;;;;4932095;28;20360;-68
2022/01/30 07:58:50;;;;;;;2.92;1.45;;;;;;;;;;4949922;28;20038;-68
2022/01/30 08:01:15;;;;;;;3.40;0.90;;;;;;;;;;4949321;28;20176;-68
2022/01/30 08:03:41;;;;;;;4.05;1.15;;;;;;;;;;4950352;28;20435;-68
2022/01/30 08:06:06;;;;;;;1.90;0.85;;;;;;;;;;4949404;28;20038;-68
2022/01/30 08:08:31;;;;;;;1.88;0.95;;;;;;;;;;4949813;28;20515;-68
2022/01/30 08:10:57;;;;;;;1.73;0.75;;;;;;;;;;4949420;28;20515;-67
2022/01/30 08:13:22;;;;;;;2.72;0.80;;;;;;;;;;4949935;28;20403;-68
2022/01/30 08:15:47;;;;;;;3.55;0.65;;;;;;;;;;4949669;28;20448;-68
2022/01/30 08:18:13;;;;;;;4.95;1.17;;;;;;;;;;4950321;28;20344;-70
2022/01/30 08:20:38;;;;;;;4.90;1.60;;;;;;;;;;4932312;28;20579;-68
2022/01/30 08:23:15;;;;;;;1.42;0.77;;;;;;;;;;4949798;28;20432;-69
2022/01/30 08:25:42;;;;;;;4.40;1.48;;;;;;;;;;4933672;28;20433;-68
2022/01/30 08:28:07;;;;;;;1.85;0.80;;;;;;;;;;4949847;28;20433;-68
2022/01/30 08:30:34;;;;;;;1.85;1.15;;;;;;;;;;4949456;28;20558;-68
2022/01/30 08:33:00;;;;;;;2.83;0.90;;;;;;;;;;4964346;28;20514;-69
2022/01/30 08:35:26;;;;;;;4.00;1.42;;;;;;;;;;4964197;28;20113;-68
2022/01/30 08:37:51;;;;;;;3.20;0.98;;;;;;;;;;4931883;28;20472;-68
2022/01/30 08:40:21;;;;;;;3.35;0.70;;;;;;;;;;4949358;28;20495;-69
2022/01/30 08:42:47;;;;;;;5.78;1.52;;;;;;;;;;4932238;28;20471;-68
2022/01/30 08:45:14;;;;;;;3.72;0.93;;;;;;;;;;4949627;28;20449;-69
2022/01/30 08:47:44;;;;;;;1.90;0.77;;;;;;;;;;4932063;28;20523;-69
2022/01/30 08:50:11;;;;;;;1.58;0.75;;;;;;;;;;4964193;28;20447;-68
2022/01/30 08:52:37;;;;;;;1.90;0.90;;;;;;;;;;4964043;28;20457;-68
2022/01/30 08:55:04;;;;;;;4.30;0.85;;;;;;;;;;4931792;28;20518;-68
2022/01/30 08:57:29;;;;;;;4.25;1.23;;;;;;;;;;4931757;28;20475;-68
2022/01/30 08:59:55;;;;;;;2.20;1.10;;;;;;;;;;4949789;28;20324;-68
2022/01/30 09:02:22;;;;;;;2.75;0.90;;;;;;;;;;4949590;28;20432;-68
2022/01/30 09:04:48;;;;;;;3.42;1.13;;;;;;;;;;4949894;28;20034;-68
2022/01/30 09:07:13;;;;;;;1.75;1.10;;;;;;;;;;4949425;28;20034;-68
2022/01/30 09:09:38;;;;;;;2.15;0.73;;;;;;;;;;4949809;28;20402;-69
2022/01/30 09:12:04;;;;;;;1.60;0.80;;;;;;;;;;4948855;28;20487;-68
2022/01/30 09:14:30;;;;;;;2.85;0.73;;;;;;;;;;4951679;28;20092;-69
2022/01/30 09:16:55;;;;;;;3.10;0.93;;;;;;;;;;4952568;28;20520;-69
2022/01/30 09:19:21;;;;;;;2.50;0.80;;;;;;;;;;4935214;28;20344;-68
2022/01/30 09:21:47;;;;;;;1.25;0.90;;;;;;;;;;4953072;28;20416;-68
2022/01/30 09:24:15;;;;;;;2.25;1.20;;;;;;;;;;4952655;28;20444;-68
2022/01/30 09:26:41;;;;;;;2.65;1.25;;;;;;;;;;4952007;28;20337;-68
2022/01/30 09:29:06;;;;;;;3.45;0.95;;;;;;;;;;4952579;28;20045;-68
2022/01/30 09:31:31;;;;;;;3.25;1.00;;;;;;;;;;4953137;28;20324;-68
2022/01/30 09:33:57;;;;;;;2.63;1.25;;;;;;;;;;4935238;28;20349;-68
2022/01/30 09:36:22;;;;;;;3.30;0.88;;;;;;;;;;4953109;28;20316;-69
2022/01/30 09:38:47;;;;;;;3.60;1.35;;;;;;;;;;4952104;28;20436;-68
2022/01/30 09:41:14;;;;;;;4.47;0.90;;;;;;;;;;4952267;28;20471;-68
2022/01/30 09:43:42;;;;;;;3.47;1.67;;;;;;;;;;4952392;28;20424;-68
2022/01/30 09:46:07;;;;;;;5.30;1.50;;;;;;;;;;4934480;28;20049;-69
2022/01/30 09:48:36;;;;;;;2.85;0.95;;;;;;;;;;4934961;28;20478;-70
2022/01/30 09:51:08;;;;;;;2.70;1.07;;;;;;;;;;4951934;28;20433;-69
2022/01/30 09:53:34;;;;;;;5.57;1.50;;;;;;;;;;4952184;28;20344;-68
2022/01/30 09:56:03;;;;;;;1.88;0.85;;;;;;;;;;4935315;28;20499;-68
2022/01/30 09:58:29;;;;;;;2.95;1.55;;;;;;;;;;4966101;28;20462;-68
2022/01/30 10:00:54;;;;;;;4.05;1.20;;;;;;;;;;4953004;28;20504;-68
2022/01/30 10:03:22;;;;;;;2.95;1.17;;;;;;;;;;4951777;28;20431;-69
2022/01/30 10:06:09;;;;;;;2.33;1.50;;;;;;;;;;4951800;28;20436;-68
2022/01/30 10:08:42;;;;;;;3.95;1.70;;;;;;;;;;4951667;28;20596;-69
2022/01/30 10:11:27;;;;;;;5.35;1.73;;;;;;;;;;4951157;28;20534;-68
2022/01/30 10:14:14;;;;;;;2.13;1.08;;;;;;;;;;4951398;28;20345;-68
2022/01/30 10:16:42;;;;;;;3.65;1.67;;;;;;;;;;4951159;28;20467;-68
2022/01/30 10:19:20;;;;;;;5.90;1.63;;;;;;;;;;4951234;28;20053;-68
2022/01/30 10:21:47;;;;;;;5.43;1.45;;;;;;;;;;4934158;28;20362;-68
2022/01/30 10:24:21;;;;;;;2.55;1.25;;;;;;;;;;4950999;28;20335;-68
2022/01/30 10:26:46;;;;;;;4.18;1.27;;;;;;;;;;4951858;28;20446;-68
2022/01/30 10:29:25;;;;;;;3.13;1.30;;;;;;;;;;4951430;28;20417;-70
2022/01/30 10:32:06;;;;;;;7.85;2.40;;;;;;;;;;4951061;28;20429;-68
2022/01/30 10:34:33;;;;;;;4.65;2.20;;;;;;;;;;4951155;28;20440;-68
2022/01/30 10:37:19;;;;;;;4.80;2.35;;;;;;;;;;4952492;28;20502;-69
2022/01/30 10:40:18;;;;;;;7.10;1.48;;;;;;;;;;4933691;28;20037;-70
2022/01/30 10:42:48;;;;;;;4.65;2.35;;;;;;;;;;4933996;28;20443;-68
2022/01/30 10:45:30;;;;;;;4.38;1.60;;;;;;;;;;4951023;28;20033;-68
2022/01/30 10:48:16;;;;;;;4.63;2.28;;;;;;;;;;4951581;28;20456;-68
2022/01/30 10:50:44;;;;;;;5.22;1.45;;;;;;;;;;4933463;28;20095;-68
2022/01/30 10:53:23;;;;;;;6.28;1.50;;;;;;;;;;4950264;28;20030;-70
2022/01/30 10:55:49;;;;;;;3.58;1.38;;;;;;;;;;4932926;28;20034;-68
2022/01/30 10:58:17;;;;;;;5.80;1.90;;;;;;;;;;4933938;28;20088;-67
2022/01/30 11:00:51;;;;;;;6.63;1.30;;;;;;;;;;4934131;28;20436;-68
2022/01/30 11:03:35;;;;;;;3.15;1.30;;;;;;;;;;4951082;28;20328;-68
2022/01/30 11:06:01;;;;;;;4.32;1.75;;;;;;;;;;4950625;28;20372;-68
2022/01/30 11:08:30;;;;;;;4.32;1.35;;;;;;;;;;4933253;28;20301;-68
2022/01/30 11:11:10;;;;;;;4.43;1.02;;;;;;;;;;4964526;28;20464;-68
2022/01/30 11:13:48;;;;;;;2.58;1.08;;;;;;;;;;4950775;28;20431;-68
2022/01/30 11:18:59;;;;;;;3.47;1.58;;;;;;;;;;4936951;28;20068;-68
2022/01/30 11:21:26;;;;;;;2.47;1.42;;;;;;;;;;4965259;28;20503;-68
2022/01/30 11:23:52;;;;;;;4.60;1.38;;;;;;;;;;4932417;28;20435;-69
2022/01/30 11:26:18;;;;;;;2.97;1.40;;;;;;;;;;4951363;28;20030;-68
2022/01/30 11:28:45;;;;;;;3.35;1.77;;;;;;;;;;4950013;28;20455;-69
2022/01/30 11:31:13;;;;;;;3.65;1.35;;;;;;;;;;4932439;28;20579;-70
2022/01/30 11:33:38;;;;;;;3.60;1.52;;;;;;;;;;4932402;28;20324;-68
2022/01/30 11:36:05;;;;;;;3.60;1.70;;;;;;;;;;4915852;28;20097;-69
2022/01/30 11:38:31;;;;;;;3.75;1.60;;;;;;;;;;4949998;28;20444;-68
2022/01/30 11:41:17;;;;;;;5.00;1.73;;;;;;;;;;4932143;28;20483;-68
2022/01/30 11:44:17;;;;;;;3.78;1.45;;;;;;;;;;4964793;28;20551;-69
2022/01/30 11:46:43;;;;;;;4.35;1.95;;;;;;;;;;4949863;28;20340;-68
2022/01/30 11:49:13;;;;;;;1.80;1.20;;;;;;;;;;4950456;28;20388;-68
2022/01/30 11:51:52;;;;;;;2.80;1.30;;;;;;;;;;4949983;28;20072;-68
2022/01/30 11:54:38;;;;;;;4.07;1.63;;;;;;;;;;4932177;28;20053;-69
2022/01/30 11:57:24;;;;;;;4.00;1.83;;;;;;;;;;4932184;28;20416;-68
2022/01/30 11:59:51;;;;;;;7.78;2.22;;;;;;;;;;4931839;28;20348;-68
2022/01/30 12:02:35;;;;;;;4.32;1.75;;;;;;;;;;4950676;28;20135;-68
2022/01/30 12:05:03;;;;;;;5.05;1.90;;;;;;;;;;4951198;28;20487;-68
2022/01/30 12:07:40;;;;;;;3.28;1.80;;;;;;;;;;4964755;28;20076;-68
2022/01/30 12:10:25;;;;;;;3.65;1.95;;;;;;;;;;4949817;28;20092;-68
2022/01/30 12:13:04;;;;;;;5.07;1.67;;;;;;;;;;4948980;28;20499;-68
2022/01/30 12:15:46;;;;;;;4.97;2.10;;;;;;;;;;4951260;28;20336;-69
2022/01/30 12:18:11;;;;;;;3.95;1.50;;;;;;;;;;4951303;28;20331;-68
2022/01/30 12:20:56;;;;;;;3.45;1.65;;;;;;;;;;4932078;28;20329;-68
2022/01/30 12:23:35;;;;;;;5.25;1.95;;;;;;;;;;4949613;28;20451;-69
2022/01/30 12:26:14;;;;;;;4.18;1.25;;;;;;;;;;4915789;28;20326;-68
2022/01/30 12:28:45;;;;;;;3.72;1.50;;;;;;;;;;4951168;28;20433;-68
2022/01/30 12:31:23;;;;;;;5.78;2.03;;;;;;;;;;4931721;28;20026;-69
2022/01/30 12:33:48;;;;;;;8.57;2.38;;;;;;;;;;4949564;28;20334;-68
2022/01/30 12:36:16;;;;;;;5.50;2.17;;;;;;;;;;4931793;28;20064;-68
2022/01/30 12:38:42;;;;;;;6.30;1.77;;;;;;;;;;4931893;28;20453;-68
2022/01/30 12:41:15;;;;;;;6.97;2.10;;;;;;;;;;4950916;28;20436;-68
2022/01/30 12:43:40;;;;;;;6.85;2.22;;;;;;;;;;4950072;28;20419;-68
2022/01/30 12:46:08;;;;;;;6.88;2.58;;;;;;;;;;4931808;28;20325;-68
2022/01/30 12:48:33;;;;;;;5.25;2.05;;;;;;;;;;4932860;28;20398;-70
2022/01/30 12:51:03;;;;;;;12.55;3.03;;;;;;;;;;4954440;28;20381;-68
2022/01/30 12:53:35;;;;;;;5.07;2.28;;;;;;;;;;4936791;28;20309;-68
2022/01/30 12:56:00;;;;;;;9.18;2.33;;;;;;;;;;4953384;28;20454;-69
2022/01/30 12:58:35;;;;;;;4.10;1.95;;;;;;;;;;4953942;28;20329;-68
2022/01/30 13:01:12;;;;;;;5.93;2.15;;;;;;;;;;4936004;28;20412;-68
2022/01/30 13:03:37;;;;;;;5.03;1.90;;;;;;;;;;4967683;28;20508;-68
2022/01/30 13:06:03;;;;;;;5.25;1.95;;;;;;;;;;4934982;28;20425;-68
2022/01/30 13:08:49;;;;;;;8.63;2.38;;;;;;;;;;4952962;28;20405;-68
2022/01/30 13:11:24;;;;;;;4.53;2.15;;;;;;;;;;4931319;28;20046;-68
2022/01/30 13:13:59;;;;;;;8.23;2.75;;;;;;;;;;4933430;28;20503;-68
2022/01/30 13:16:27;;;;;;;2.95;1.60;;;;;;;;;;4932919;28;20425;-68
2022/01/30 13:18:53;;;;;;;6.90;2.22;;;;;;;;;;4948083;28;20100;-68
2022/01/30 13:21:26;;;;;;;5.25;2.63;;;;;;;;;;4933036;28;20026;-68
2022/01/30 13:23:52;;;;;;;6.45;2.33;;;;;;;;;;4934113;28;20504;-68
2022/01/30 13:26:30;;;;;;;4.80;2.17;;;;;;;;;;4948794;28;20383;-68
2022/01/30 13:28:55;;;;;;;4.05;1.98;;;;;;;;;;4933784;28;20542;-68
2022/01/30 13:31:21;;;;;;;3.25;1.90;;;;;;;;;;4933124;28;20520;-68
2022/01/30 13:34:05;;;;;;;5.28;1.95;;;;;;;;;;4932963;28;20463;-69
2022/01/30 13:36:30;;;;;;;7.07;2.33;;;;;;;;;;4933168;28;20372;-69
2022/01/30 13:38:56;;;;;;;5.15;2.08;;;;;;;;;;4931379;28;20070;-69
2022/01/30 13:41:27;;;;;;;5.50;2.05;;;;;;;;;;4933131;28;20412;-68
2022/01/30 13:43:58;;;;;;;6.53;2.15;;;;;;;;;;4933062;28;20401;-67
2022/01/30 13:49:11;;;;;;;7.28;2.35;;;;;;;;;;4931357;28;20368;-68
2022/01/30 13:51:36;;;;;;;5.78;2.58;;;;;;;;;;4932631;28;20340;-68
2022/01/30 13:54:09;;;;;;;7.88;2.75;;;;;;;;;;4932608;28;20392;-69
2022/01/30 13:56:34;;;;;;;5.18;2.33;;;;;;;;;;4932463;28;20425;-68
2022/01/30 13:59:00;;;;;;;6.38;2.30;;;;;;;;;;4932203;28;20408;-68
2022/01/30 14:01:26;;;;;;;7.18;2.75;;;;;;;;;;4932597;28;20403;-68
2022/01/30 14:04:11;;;;;;;6.28;2.63;;;;;;;;;;4931321;28;20333;-68
2022/01/30 14:06:37;;;;;;;4.88;2.13;;;;;;;;;;4932430;28;20512;-68
2022/01/30 14:09:09;;;;;;;8.00;3.05;;;;;;;;;;4933300;28;20314;-68
2022/01/30 14:11:36;;;;;;;6.38;2.08;;;;;;;;;;4946147;28;20514;-68
2022/01/30 14:14:06;;;;;;;6.55;2.45;;;;;;;;;;4934398;28;20347;-69
2022/01/30 14:16:47;;;;;;;8.77;2.08;;;;;;;;;;4951632;28;20368;-68
2022/01/30 14:19:23;;;;;;;4.40;1.90;;;;;;;;;;4966334;28;20368;-68
2022/01/30 14:21:52;;;;;;;14.05;3.80;;;;;;;;;;4965805;28;20053;-68
2022/01/30 14:24:19;;;;;;;4.95;2.35;;;;;;;;;;4933908;28;20060;-68
2022/01/30 14:26:44;;;;;;;8.10;2.13;;;;;;;;;;4952373;28;20452;-69
2022/01/30 14:29:23;;;;;;;7.63;2.15;;;;;;;;;;4966055;28;20384;-69
2022/01/30 14:31:55;;;;;;;8.33;2.93;;;;;;;;;;4951403;28;20340;-68
2022/01/30 14:34:24;;;;;;;9.13;2.58;;;;;;;;;;4933457;28;20033;-70
2022/01/30 14:36:51;;;;;;;8.07;2.97;;;;;;;;;;4951203;28;20421;-68
2022/01/30 14:39:17;;;;;;;5.28;2.60;;;;;;;;;;4967117;28;20428;-69
2022/01/30 14:41:42;;;;;;;10.10;2.65;;;;;;;;;;4933583;28;20409;-68
2022/01/30 14:44:08;;;;;;;8.20;2.88;;;;;;;;;;4951084;28;20321;-68
2022/01/30 14:46:33;;;;;;;7.38;2.70;;;;;;;;;;4951352;28;20022;-69
2022/01/30 14:48:59;;;;;;;4.85;2.42;;;;;;;;;;4950565;28;20103;-68
2022/01/30 14:51:24;;;;;;;7.13;2.75;;;;;;;;;;4950887;28;20482;-68
2022/01/30 14:53:49;;;;;;;5.10;2.15;;;;;;;;;;4916718;28;20433;-69
2022/01/30 14:56:14;;;;;;;9.88;3.13;;;;;;;;;;4933500;28;20408;-68
2022/01/30 14:58:40;;;;;;;5.82;2.42;;;;;;;;;;4933047;28;20495;-69
2022/01/30 15:01:05;;;;;;;8.68;2.38;;;;;;;;;;4951486;28;20408;-68
2022/01/30 15:03:33;;;;;;;7.63;2.58;;;;;;;;;;4950202;28;20425;-68
2022/01/30 15:06:02;;;;;;;6.57;2.40;;;;;;;;;;4950542;28;20432;-68
2022/01/30 15:08:28;;;;;;;7.45;2.22;;;;;;;;;;4965681;28;20441;-68
2022/01/30 15:10:53;;;;;;;8.85;2.00;;;;;;;;;;4949630;28;20537;-68
2022/01/30 15:13:21;;;;;;;5.68;2.63;;;;;;;;;;4950435;28;20511;-69
2022/01/30 15:15:47;;;;;;;5.80;2.40;;;;;;;;;;4932962;28;20404;-68
2022/01/30 15:18:23;;;;;;;4.82;1.95;;;;;;;;;;4933053;28;20304;-68
2022/01/30 15:20:49;;;;;;;7.68;2.15;;;;;;;;;;4952008;28;20340;-68
2022/01/30 15:23:15;;;;;;;4.95;2.65;;;;;;;;;;4950432;28;20344;-68
2022/01/30 15:25:40;;;;;;;7.32;2.75;;;;;;;;;;4932796;28;20037;-68
2022/01/30 15:28:06;;;;;;;5.28;2.33;;;;;;;;;;4950475;28;20360;-69
2022/01/30 15:30:31;;;;;;;7.80;2.28;;;;;;;;;;4950056;28;20409;-68
2022/01/30 15:32:57;;;;;;;7.95;2.70;;;;;;;;;;4916436;28;20049;-69
2022/01/30 15:35:24;;;;;;;6.22;2.45;;;;;;;;;;4951197;28;20405;-68
2022/01/30 15:37:49;;;;;;;4.18;1.83;;;;;;;;;;4933772;28;20428;-68
2022/01/30 15:40:14;;;;;;;6.00;2.83;;;;;;;;;;4951601;28;20313;-69